Time;durP1;ratioP1;P1;durP2;ratioP2;P2;SDS_P1;SDS_P2;PMS_P1;PMS_P2;Temp;Humidity;BMP_temperature;BMP_pressure;BME280_temperature;BME280_humidity;BME280_pressure;Samples;Min_cycle;Max_cycle;Signal;HPM_P1;HPM_P2
2023/10/17 00:01:47;;;;;;;4.93;4.33;;;8.50;56.70;;;8.54;44.12;95402.78;5074221;28;20534;-60
2023/10/17 00:04:27;;;;;;;6.27;3.23;;;8.50;57.30;;;8.52;44.04;95399.44;5074890;28;20458;-59
2023/10/17 00:06:58;;;;;;;4.00;3.20;;;8.50;56.80;;;8.51;43.99;95399.56;5073492;28;20470;-58
2023/10/17 00:09:25;;;;;;;5.00;3.50;;;8.50;56.70;;;8.48;44.09;95384.06;5076564;28;20446;-59
2023/10/17 00:12:03;;;;;;;6.90;3.20;;;8.50;57.00;;;8.45;43.55;95389.53;5079145;28;20546;-60
2023/10/17 00:14:35;;;;;;;6.50;4.10;;;8.40;56.60;;;8.39;44.26;95381.13;5075406;28;20958;-60
2023/10/17 00:17:03;;;;;;;4.07;3.20;;;8.40;56.70;;;8.39;43.97;95396.03;5078663;28;20486;-63
2023/10/17 00:19:32;;;;;;;6.13;3.80;;;8.40;56.90;;;8.37;44.30;95392.69;5071045;28;20882;-63
2023/10/17 00:22:02;;;;;;;4.27;3.70;;;8.30;56.60;;;8.36;44.22;95386.59;5078893;28;20502;-60
2023/10/17 00:24:30;;;;;;;6.13;3.40;;;8.30;57.10;;;8.38;44.16;95389.09;5073448;28;20516;-59
2023/10/17 00:26:57;;;;;;;8.40;3.00;;;8.30;57.30;;;8.37;44.67;95384.81;5078352;28;20479;-59
2023/10/17 00:29:24;;;;;;;13.50;3.47;;;8.30;57.50;;;8.36;44.23;95380.53;5073138;28;20461;-60
2023/10/17 00:31:52;;;;;;;17.10;3.87;;;8.30;57.50;;;8.35;44.59;95373.59;5065849;28;20482;-60
2023/10/17 00:34:21;;;;;;;3.87;3.57;;;8.30;57.40;;;8.36;44.73;95372.66;5075019;28;20447;-63
2023/10/17 00:36:49;;;;;;;4.77;3.73;;;8.30;57.80;;;8.34;44.71;95371.94;5073784;28;20490;-64
2023/10/17 00:39:29;;;;;;;8.83;5.40;;;8.30;57.60;;;8.31;44.75;95372.16;5075688;28;20451;-60
2023/10/17 00:44:39;;;;;;;8.93;3.90;;;8.30;57.40;;;8.24;44.09;95370.00;5070892;28;20471;-60
2023/10/17 00:47:08;;;;;;;8.50;3.60;;;8.20;57.40;;;8.21;44.54;95366.75;5076327;28;20566;-63
2023/10/17 00:49:40;;;;;;;4.07;3.23;;;8.20;57.50;;;8.19;45.05;95361.63;5080131;28;20460;-59
2023/10/17 00:52:15;;;;;;;7.57;3.87;;;8.20;57.80;;;8.18;45.11;95354.72;5078845;28;20494;-60
2023/10/17 00:54:44;;;;;;;5.30;4.03;;;8.20;57.80;;;8.20;45.28;95360.69;5078820;28;20445;-64
2023/10/17 00:57:14;;;;;;;6.63;4.57;;;8.20;58.10;;;8.19;44.83;95359.00;5082426;28;20487;-60
2023/10/17 00:59:44;;;;;;;7.87;4.10;;;8.20;58.00;;;8.20;45.50;95370.34;5081843;28;20500;-64
2023/10/17 01:02:15;;;;;;;4.17;3.57;;;8.20;58.20;;;8.19;45.65;95377.34;5082677;28;20478;-64
2023/10/17 01:04:44;;;;;;;9.00;4.10;;;8.20;58.40;;;8.17;44.99;95363.53;5077650;28;20532;-64
2023/10/17 01:07:23;;;;;;;10.87;3.40;;;8.10;58.10;;;8.17;45.37;95373.19;5080152;28;20495;-62
2023/10/17 01:09:55;;;;;;;13.50;4.87;;;8.10;58.00;;;8.16;44.96;95374.94;5076321;28;20457;-60
2023/10/17 01:12:28;;;;;;;6.70;4.63;;;8.20;58.20;;;8.15;45.48;95368.06;5080084;28;20888;-63
2023/10/17 01:14:55;;;;;;;12.63;4.10;;;8.10;58.30;;;8.15;45.45;95372.44;5079556;28;20963;-59
2023/10/17 01:17:24;;;;;;;6.70;4.53;;;8.10;58.10;;;8.12;46.00;95373.53;5080070;28;20548;-59
2023/10/17 01:19:57;;;;;;;6.20;4.70;;;8.10;58.70;;;8.11;45.78;95373.63;5073646;28;20971;-60
2023/10/17 01:22:24;;;;;;;4.63;3.70;;;8.10;58.60;;;8.09;45.20;95373.75;5083415;28;20584;-64
2023/10/17 01:24:56;;;;;;;5.27;4.20;;;8.10;58.50;;;8.08;44.82;95366.81;5083473;28;21049;-59
2023/10/17 01:27:24;;;;;;;10.13;3.80;;;8.10;58.30;;;8.08;45.10;95366.81;5081283;28;20473;-62
2023/10/17 01:29:51;;;;;;;8.93;3.60;;;8.00;58.30;;;8.05;45.55;95362.63;5081879;28;20537;-60
2023/10/17 01:32:21;;;;;;;4.97;4.47;;;8.00;58.30;;;8.04;45.95;95370.59;5080997;28;20467;-64
2023/10/17 01:34:49;;;;;;;6.23;3.60;;;8.00;59.40;;;7.99;45.82;95363.09;5076171;28;20505;-64
2023/10/17 01:37:16;;;;;;;4.17;3.23;;;8.00;58.70;;;7.98;45.89;95363.19;5077225;28;20506;-63
2023/10/17 01:39:44;;;;;;;4.37;3.80;;;8.00;58.80;;;7.96;45.72;95365.09;5078479;28;20454;-59
2023/10/17 01:42:13;;;;;;;4.27;3.87;;;8.00;58.80;;;7.95;46.15;95361.66;5075640;28;20474;-63
2023/10/17 01:44:40;;;;;;;10.93;4.33;;;7.90;58.80;;;7.95;45.59;95366.03;5080470;28;20572;-59
2023/10/17 01:47:08;;;;;;;9.13;4.90;;;7.90;58.80;;;7.94;45.97;95377.47;5078290;28;20527;-59
2023/10/17 01:49:36;;;;;;;3.50;3.20;;;7.90;59.10;;;7.93;46.18;95370.56;5078133;28;20545;-59
2023/10/17 01:52:06;;;;;;;7.43;3.37;;;7.90;58.90;;;7.93;46.04;95373.19;5079502;28;20881;-59
2023/10/17 01:54:36;;;;;;;14.03;3.80;;;7.90;58.80;;;7.93;45.79;95383.66;5075682;28;20526;-59
2023/10/17 01:57:07;;;;;;;3.80;3.50;;;7.90;59.30;;;7.92;45.46;95377.59;5081549;28;20474;-61
2023/10/17 01:59:36;;;;;;;9.20;3.33;;;7.90;59.00;;;7.93;45.64;95374.00;5081302;28;20442;-60
2023/10/17 02:02:04;;;;;;;8.23;3.60;;;7.90;59.20;;;7.94;46.26;95377.47;5070698;28;20572;-64
2023/10/17 02:04:34;;;;;;;4.37;3.60;;;7.90;59.00;;;7.94;46.13;95361.75;5079956;28;20463;-63
2023/10/17 02:07:03;;;;;;;9.13;3.50;;;7.90;59.10;;;7.96;46.14;95358.06;5079019;28;20486;-62
2023/10/17 02:12:25;;;;;;;5.37;4.20;;;8.00;59.30;;;7.92;46.03;95361.03;5115841;27;20534;-60
2023/10/17 02:14:52;;;;;;;6.73;3.53;;;7.90;59.30;;;7.89;45.99;95360.31;5090684;28;20484;-59
2023/10/17 02:17:20;;;;;;;6.97;4.10;;;7.90;59.30;;;7.88;46.62;95361.28;5088978;28;20478;-63
2023/10/17 02:19:47;;;;;;;6.23;3.50;;;7.90;59.70;;;7.87;46.25;95358.75;5095688;28;20487;-61
2023/10/17 02:22:16;;;;;;;5.63;3.70;;;7.90;59.40;;;7.87;46.54;95364.81;5092502;28;20553;-59
2023/10/17 02:24:43;;;;;;;3.73;3.17;;;7.90;59.70;;;7.88;46.51;95365.66;5088214;28;20540;-60
2023/10/17 02:27:13;;;;;;;6.70;3.63;;;7.80;59.60;;;7.87;46.57;95358.75;5092916;28;20465;-64
2023/10/17 02:29:44;;;;;;;4.00;3.53;;;7.90;59.60;;;7.87;46.49;95354.34;5093099;28;20457;-64
2023/10/17 02:32:12;;;;;;;6.13;3.20;;;7.90;59.60;;;7.86;46.55;95357.91;5097927;28;20554;-60
2023/10/17 02:34:40;;;;;;;16.13;4.67;;;7.90;59.60;;;7.86;46.28;95355.28;5093082;28;20570;-60
2023/10/17 02:37:11;;;;;;;5.90;4.20;;;7.80;59.90;;;7.86;46.77;95362.31;5089300;28;20849;-60
2023/10/17 02:39:39;;;;;;;4.30;3.90;;;7.90;59.70;;;7.82;46.39;95353.88;5089564;28;20446;-60
2023/10/17 02:42:09;;;;;;;7.87;3.70;;;7.80;59.70;;;7.80;46.94;95352.28;5093619;28;20470;-59
2023/10/17 02:44:39;;;;;;;6.70;4.10;;;7.80;59.90;;;7.79;46.32;95351.47;5094982;28;20921;-61
2023/10/17 02:47:11;;;;;;;4.20;3.60;;;7.80;60.10;;;7.78;46.46;95349.78;5078989;28;20470;-63
2023/10/17 02:49:39;;;;;;;6.60;4.57;;;7.80;60.10;;;7.78;46.87;95351.56;5086812;28;20449;-59
2023/10/17 02:52:07;;;;;;;4.30;3.53;;;7.70;60.30;;;7.76;46.85;95359.53;5091261;28;20505;-65
2023/10/17 02:54:54;;;;;;;9.63;4.43;;;7.80;60.10;;;7.76;46.99;95356.06;5088476;28;20958;-61
2023/10/17 02:57:23;;;;;;;4.63;3.57;;;7.80;60.70;;;7.74;46.99;95358.78;5094234;28;20482;-60
2023/10/17 02:59:51;;;;;;;4.77;3.50;;;7.70;60.30;;;7.73;46.74;95367.63;5097492;28;20461;-60
2023/10/17 03:02:24;;;;;;;12.20;3.50;;;7.70;60.40;;;7.75;47.39;95368.34;5094643;28;20496;-63
2023/10/17 03:04:52;;;;;;;7.23;3.20;;;7.70;60.60;;;7.76;47.32;95372.63;5092603;28;20441;-63
2023/10/17 03:07:21;;;;;;;6.30;3.63;;;7.70;60.60;;;7.78;46.91;95369.91;5088629;28;20981;-64
2023/10/17 03:09:49;;;;;;;8.70;4.13;;;7.80;60.90;;;7.80;47.00;95370.63;5093907;28;20450;-60
2023/10/17 03:12:23;;;;;;;3.50;3.20;;;7.80;60.60;;;7.82;47.05;95366.94;5087939;28;20579;-60
2023/10/17 03:17:36;;;;;;;9.97;3.30;;;7.80;60.90;;;7.89;47.09;95354.25;5089726;28;20512;-60
2023/10/17 03:20:07;;;;;;;4.93;3.83;;;7.90;60.60;;;7.93;46.54;95353.06;5092985;28;20515;-63
2023/10/17 03:22:35;;;;;;;5.13;3.40;;;7.90;60.40;;;7.95;47.06;95351.19;5086277;28;21117;-59
2023/10/17 03:25:09;;;;;;;6.30;3.67;;;7.90;60.40;;;7.97;46.51;95357.13;5074264;28;20448;-59
2023/10/17 03:27:36;;;;;;;6.23;4.47;;;8.00;60.40;;;8.00;46.59;95351.66;5083491;28;20558;-59
2023/10/17 03:30:08;;;;;;;3.80;3.20;;;8.00;60.40;;;8.03;46.76;95356.69;5080329;28;20841;-59
2023/10/17 03:32:54;;;;;;;7.03;3.37;;;8.00;60.70;;;8.04;47.22;95355.75;5073685;28;20605;-64
2023/10/17 03:35:22;;;;;;;8.07;4.20;;;8.00;61.30;;;8.05;47.01;95352.16;5077839;28;20530;-64
2023/10/17 03:37:48;;;;;;;16.50;4.60;;;8.00;60.80;;;8.08;46.58;95357.16;5069641;28;20475;-61
2023/10/17 03:40:19;;;;;;;9.67;4.80;;;8.00;60.90;;;8.11;46.97;95355.28;5072871;28;20534;-61
2023/10/17 03:42:53;;;;;;;6.33;4.10;;;8.10;60.90;;;8.13;46.78;95361.25;5080461;28;20707;-60
2023/10/17 03:45:24;;;;;;;9.00;4.00;;;8.10;61.20;;;8.15;47.26;95369.81;5080486;28;20514;-59
2023/10/17 03:47:54;;;;;;;9.17;4.10;;;8.10;61.20;;;8.17;47.33;95365.31;5078625;28;20479;-64
2023/10/17 03:50:41;;;;;;;7.90;4.87;;;8.10;61.30;;;8.19;47.52;95363.41;5081013;28;20450;-60
2023/10/17 03:53:15;;;;;;;13.53;3.70;;;8.10;61.50;;;8.22;47.04;95353.53;5077058;28;20452;-60
2023/10/17 03:55:43;;;;;;;5.33;4.20;;;8.20;61.60;;;8.25;47.39;95347.25;5070980;28;20451;-64
2023/10/17 03:58:19;;;;;;;5.33;3.80;;;8.20;61.70;;;8.28;47.30;95356.66;5074665;28;20451;-63
2023/10/17 04:00:47;;;;;;;7.50;4.60;;;8.20;61.30;;;8.31;46.86;95356.44;5065534;28;20449;-63
2023/10/17 04:03:21;;;;;;;8.67;4.20;;;8.30;61.50;;;8.34;47.69;95356.22;5076664;28;20450;-60
2023/10/17 04:05:50;;;;;;;4.90;3.80;;;8.30;61.70;;;8.37;46.63;95358.63;5074324;28;22247;-60
2023/10/17 04:08:26;;;;;;;8.23;3.97;;;8.30;61.40;;;8.38;47.10;95358.50;5080360;28;20455;-60
2023/10/17 04:11:08;;;;;;;12.47;4.47;;;8.30;61.50;;;8.40;46.68;95355.75;5064921;28;20494;-60
2023/10/17 04:13:37;;;;;;;5.37;3.90;;;8.40;61.60;;;8.41;47.16;95352.16;5073581;28;20445;-60
2023/10/17 04:16:09;;;;;;;21.23;5.27;;;8.40;61.70;;;8.44;47.17;95351.97;5072959;28;20865;-59
2023/10/17 04:18:38;;;;;;;10.93;3.90;;;8.40;62.10;;;8.45;47.27;95348.41;5073926;28;21024;-60
2023/10/17 04:21:18;;;;;;;6.60;4.03;;;8.40;61.80;;;8.46;47.75;95352.72;5080635;28;20554;-61
2023/10/17 04:23:49;;;;;;;6.23;3.87;;;8.40;62.20;;;8.49;47.09;95343.75;5079183;28;20462;-60
2023/10/17 04:26:19;;;;;;;7.20;4.20;;;8.40;62.30;;;8.54;47.28;95346.91;5079512;28;20528;-62
2023/10/17 04:28:49;;;;;;;6.73;3.90;;;8.50;62.40;;;8.55;47.58;95349.41;5081584;28;20447;-60
2023/10/17 04:31:25;;;;;;;9.77;4.47;;;8.50;62.40;;;8.57;47.86;95350.13;5079973;28;20537;-61
2023/10/17 04:34:05;;;;;;;7.10;3.73;;;8.50;62.40;;;8.58;47.96;95335.22;5074088;28;20453;-61
2023/10/17 04:36:37;;;;;;;5.47;4.40;;;8.60;62.50;;;8.63;47.62;95337.47;5077350;28;20491;-61
2023/10/17 04:39:18;;;;;;;20.27;4.23;;;8.60;62.50;;;8.65;47.47;95335.59;5071875;28;20455;-61
2023/10/17 04:44:32;;;;;;;13.17;3.77;;;8.60;62.50;;;8.69;47.66;95343.13;5073415;28;20458;-60
2023/10/17 04:47:16;;;;;;;9.13;4.30;;;8.70;62.60;;;8.72;47.92;95347.28;5072072;28;20476;-60
2023/10/17 04:49:44;;;;;;;8.17;3.93;;;8.70;63.50;;;8.77;47.97;95350.41;5077264;28;20492;-63
2023/10/17 04:52:19;;;;;;;6.23;4.60;;;8.70;63.40;;;8.81;48.14;95346.56;5064974;28;20482;-63
2023/10/17 04:54:47;;;;;;;9.83;4.27;;;8.80;63.20;;;8.86;48.14;95344.44;5070530;28;20465;-60
2023/10/17 04:57:16;;;;;;;9.60;4.80;;;8.80;63.60;;;8.90;47.70;95343.25;5080979;28;20493;-62
2023/10/17 04:59:55;;;;;;;6.00;4.37;;;8.90;63.30;;;8.94;47.90;95336.81;5081524;28;20836;-61
2023/10/17 05:02:41;;;;;;;10.67;4.27;;;8.90;63.40;;;9.01;48.10;95346.84;5080536;28;21057;-63
2023/10/17 06:16:57;;;;;;;18.23;5.27;;;11.80;62.10;;;12.42;46.05;95385.16;5074572;28;20776;-64
2023/10/17 06:19:26;;;;;;;18.13;4.20;;;12.10;62.30;;;12.69;45.95;95383.63;5079231;28;20456;-60
2023/10/17 06:25:28;;;;;;;10.83;4.10;;;12.60;63.30;;;12.92;45.58;95384.16;5073859;28;20407;-61
2023/10/17 06:30:45;;;;;;;23.57;4.60;;;12.70;60.80;;;12.87;45.40;95389.88;5034883;28;20861;-64
2023/10/17 06:33:19;;;;;;;13.67;4.80;;;12.70;60.60;;;12.81;45.33;95387.78;5036141;28;20506;-64
2023/10/17 06:35:52;;;;;;;16.63;5.10;;;12.70;60.80;;;12.72;45.35;95383.34;5059933;28;20447;-60
2023/10/17 06:38:21;;;;;;;16.03;6.07;;;12.60;60.70;;;12.67;45.68;95385.56;5077556;28;20443;-61
2023/10/17 06:40:53;;;;;;;23.00;5.47;;;12.50;60.90;;;12.63;45.95;95390.28;5072536;28;20983;-64
2023/10/17 06:43:31;;;;;;;7.70;4.63;;;12.50;61.10;;;12.59;46.07;95388.06;5072454;28;20470;-62
2023/10/17 06:46:00;;;;;;;22.43;5.90;;;12.50;61.30;;;12.58;46.02;95386.41;5075041;28;20508;-61
2023/10/17 06:48:33;;;;;;;12.40;5.90;;;12.40;61.20;;;12.57;45.95;95388.22;5079540;28;20476;-64
2023/10/17 06:53:48;;;;;;;13.33;5.97;;;12.40;61.60;;;12.54;45.90;95380.56;5067651;28;20576;-64
2023/10/17 06:56:17;;;;;;;13.20;6.20;;;12.40;61.80;;;12.53;46.13;95377.13;5080207;28;20968;-61
2023/10/17 06:58:47;;;;;;;14.53;6.73;;;12.40;62.00;;;12.54;46.45;95380.56;5079936;28;20486;-65
2023/10/17 07:01:24;;;;;;;36.13;6.97;;;12.40;62.00;;;12.57;46.68;95369.75;5083929;28;20578;-60
2023/10/17 07:03:55;;;;;;;14.30;6.07;;;12.40;62.20;;;12.62;46.48;95369.31;5082111;28;20462;-64
2023/10/17 07:06:25;;;;;;;10.40;4.67;;;12.50;62.70;;;12.64;47.00;95364.72;5081820;28;20573;-64
2023/10/17 07:08:53;;;;;;;26.77;4.37;;;12.50;63.30;;;12.64;46.92;95362.94;5082542;28;20458;-64
2023/10/17 07:11:27;;;;;;;8.00;3.80;;;12.50;63.40;;;12.69;47.17;95365.16;5081414;28;20477;-63
2023/10/17 07:14:11;;;;;;;3.70;3.40;;;12.50;63.90;;;12.70;47.61;95364.16;5083832;28;20449;-60
2023/10/17 07:16:57;;;;;;;12.90;6.77;;;12.60;64.10;;;12.66;47.72;95352.25;5082994;28;20477;-60
2023/10/17 07:22:11;;;;;;;5.53;2.87;;;12.50;64.70;;;12.61;47.79;95360.59;5080047;28;20481;-65
2023/10/17 07:24:42;;;;;;;4.30;2.27;;;12.50;64.70;;;12.55;47.97;95361.13;5081564;28;20545;-60
2023/10/17 07:27:18;;;;;;;3.23;2.90;;;12.50;64.90;;;12.50;48.00;95358.06;5082529;28;20469;-62
2023/10/17 07:29:58;;;;;;;4.27;2.70;;;12.40;65.10;;;12.46;48.05;95361.97;5080378;28;20454;-61
2023/10/17 07:32:32;;;;;;;11.70;3.10;;;12.40;65.30;;;12.45;48.85;95352.38;5080737;28;20490;-66
2023/10/17 07:35:04;;;;;;;2.40;2.20;;;12.40;65.70;;;12.45;48.69;95355.84;5081923;28;20460;-63
2023/10/17 07:37:47;;;;;;;5.00;2.53;;;12.40;65.20;;;12.46;48.56;95357.53;5081907;28;20467;-61
2023/10/17 07:40:22;;;;;;;9.47;2.90;;;12.40;65.30;;;12.50;48.57;95356.28;5076702;28;20443;-64
2023/10/17 07:42:52;;;;;;;4.27;2.10;;;12.40;65.90;;;12.50;48.57;95353.66;5082486;28;20548;-59
2023/10/17 07:45:22;;;;;;;6.50;1.80;;;12.40;65.80;;;12.51;49.01;95349.19;5081366;28;20458;-60
2023/10/17 07:47:55;;;;;;;2.83;2.50;;;12.40;66.30;;;12.51;48.35;95344.72;5081738;28;20470;-64
2023/10/17 07:50:25;;;;;;;5.57;2.53;;;12.40;66.00;;;12.53;48.18;95334.91;5081127;28;20450;-61
2023/10/17 07:52:59;;;;;;;4.60;2.63;;;12.40;65.90;;;12.59;48.44;95341.41;5080523;28;20580;-64
2023/10/17 07:55:36;;;;;;;3.87;2.20;;;12.50;66.10;;;12.65;48.37;95345.28;5082507;28;20434;-60
2023/10/17 07:58:07;;;;;;;4.27;2.87;;;12.50;65.90;;;12.66;48.41;95346.97;5076291;28;21158;-64
2023/10/17 08:00:36;;;;;;;5.60;2.17;;;12.50;66.00;;;12.67;48.27;95351.25;5082254;28;20444;-65
2023/10/17 08:03:09;;;;;;;3.63;2.87;;;12.50;66.20;;;12.66;48.46;95341.69;5080026;28;20522;-64
2023/10/17 08:05:44;;;;;;;2.40;2.20;;;12.50;65.70;;;12.67;48.11;95344.19;5081637;28;20557;-64
2023/10/17 08:08:14;;;;;;;5.90;1.80;;;12.50;65.40;;;12.70;48.38;95340.41;5081629;28;20447;-64
2023/10/17 08:10:45;;;;;;;10.20;3.03;;;12.50;65.40;;;12.69;47.85;95336.94;5080031;28;20487;-64
2023/10/17 08:13:13;;;;;;;11.77;3.97;;;12.60;65.70;;;12.72;48.60;95335.84;5082078;28;20548;-64
2023/10/17 08:15:46;;;;;;;7.60;1.90;;;12.60;65.70;;;12.77;48.00;95335.41;5079857;28;20466;-60
2023/10/17 08:18:16;;;;;;;4.27;2.00;;;12.60;65.50;;;12.81;48.05;95337.63;5074707;28;20546;-60
2023/10/17 08:20:54;;;;;;;6.20;2.17;;;12.60;65.50;;;12.82;48.07;95339.28;5075119;28;20562;-64
2023/10/17 08:23:23;;;;;;;8.17;1.73;;;12.70;65.60;;;12.86;47.90;95340.66;5076966;28;20447;-65
2023/10/17 08:25:56;;;;;;;4.90;1.97;;;12.70;65.30;;;12.89;47.80;95335.09;5080777;28;21009;-64
2023/10/17 08:28:33;;;;;;;6.20;2.53;;;12.70;64.90;;;12.95;47.60;95338.16;5080513;28;20967;-65
2023/10/17 08:31:22;;;;;;;2.23;2.07;;;12.80;65.10;;;13.02;47.54;95326.03;5079087;28;20474;-62
2023/10/17 08:33:56;;;;;;;2.77;2.57;;;12.90;65.00;;;13.10;47.03;95331.44;5080154;28;20572;-64
2023/10/17 08:36:28;;;;;;;8.43;2.37;;;12.90;64.80;;;13.16;47.33;95325.56;5079649;28;20577;-65
2023/10/17 08:38:55;;;;;;;3.47;1.87;;;13.00;64.60;;;13.21;47.17;95328.59;5081719;28;20882;-59
2023/10/17 08:41:25;;;;;;;2.00;1.90;;;13.00;64.40;;;13.23;47.05;95331.09;5079102;28;20471;-65
2023/10/17 08:43:53;;;;;;;4.47;2.70;;;13.10;64.10;;;13.23;47.03;95320.53;5082579;28;20451;-60
2023/10/17 08:46:22;;;;;;;7.27;2.00;;;13.10;64.10;;;13.27;47.36;95333.31;5081814;28;21040;-64
2023/10/17 08:48:56;;;;;;;4.80;2.13;;;13.10;64.60;;;13.35;47.13;95343.19;5085821;28;20461;-64
2023/10/17 08:51:24;;;;;;;12.23;3.17;;;13.10;64.50;;;13.41;47.03;95336.50;5081258;28;20467;-65
2023/10/17 08:53:54;;;;;;;3.00;1.90;;;13.20;63.90;;;13.41;46.92;95336.50;5085292;28;20489;-64
2023/10/17 08:56:22;;;;;;;5.63;2.13;;;13.20;63.50;;;13.39;46.42;95338.47;5078999;28;20471;-60
2023/10/17 08:58:56;;;;;;;3.27;2.33;;;13.20;63.50;;;13.36;46.80;95339.56;5081798;28;20458;-64
2023/10/17 09:01:26;;;;;;;5.40;2.40;;;13.20;63.50;;;13.39;46.66;95325.25;5078943;28;20517;-65
2023/10/17 09:03:54;;;;;;;10.80;2.60;;;13.20;63.80;;;13.45;46.56;95322.03;5082394;28;20449;-64
2023/10/17 09:06:31;;;;;;;4.70;1.70;;;13.30;63.90;;;13.51;46.59;95320.59;5078128;28;20884;-60
2023/10/17 09:12:03;;;;;;;5.20;2.93;;;13.40;63.60;;;13.64;46.53;95315.81;5073977;28;20567;-65
2023/10/17 09:14:35;;;;;;;4.27;2.53;;;13.40;63.30;;;13.72;46.17;95307.13;5078109;28;20592;-60
2023/10/17 09:17:10;;;;;;;4.80;2.37;;;13.50;63.10;;;13.78;45.60;95299.44;5073796;28;20486;-60
2023/10/17 09:19:46;;;;;;;7.47;2.40;;;13.60;62.50;;;13.81;45.57;95291.19;5078449;28;20450;-63
2023/10/17 09:22:16;;;;;;;2.13;1.70;;;13.60;62.00;;;13.88;45.41;95295.88;5079821;28;20807;-58
2023/10/17 09:24:48;;;;;;;7.90;2.47;;;13.70;61.80;;;13.95;45.00;95287.22;5079649;28;20443;-64
2023/10/17 09:27:15;;;;;;;14.43;2.47;;;13.70;61.40;;;13.97;45.07;95297.63;5079197;28;20466;-64
2023/10/17 09:29:48;;;;;;;6.93;1.77;;;13.80;61.30;;;13.97;45.15;95295.84;5079904;28;20450;-64
2023/10/17 09:32:34;;;;;;;6.43;2.20;;;13.80;61.20;;;13.95;45.13;95286.38;5078361;28;20502;-64
2023/10/17 09:35:06;;;;;;;5.60;2.40;;;13.80;61.20;;;13.92;45.18;95282.22;5076542;28;20851;-60
2023/10/17 09:37:38;;;;;;;6.30;2.17;;;13.80;61.40;;;13.95;45.18;95281.09;5078721;28;20478;-60
2023/10/17 09:40:12;;;;;;;3.53;2.20;;;13.80;61.40;;;13.96;45.26;95283.59;5079685;28;20458;-60
2023/10/17 09:42:44;;;;;;;6.10;2.00;;;13.80;61.50;;;13.96;45.20;95283.59;5078263;28;20471;-60
2023/10/17 09:45:11;;;;;;;9.27;2.53;;;13.80;61.30;;;13.94;45.16;95275.00;5080801;28;20549;-64
2023/10/17 09:47:44;;;;;;;4.77;2.40;;;13.70;61.10;;;13.92;45.13;95273.47;5077078;28;20478;-64
2023/10/17 09:50:16;;;;;;;9.07;2.63;;;13.80;61.20;;;13.93;45.29;95272.50;5073897;28;20955;-64
2023/10/17 09:52:45;;;;;;;7.40;2.20;;;13.70;61.20;;;13.96;45.21;95270.38;5074296;28;20502;-65
2023/10/17 09:55:14;;;;;;;2.63;2.10;;;13.80;61.40;;;14.01;45.19;95271.75;5080207;28;20900;-64
2023/10/17 09:57:45;;;;;;;3.37;1.90;;;13.80;61.40;;;14.06;45.27;95272.94;5078096;28;20470;-60
2023/10/17 10:00:23;;;;;;;2.07;1.53;;;13.90;61.60;;;14.11;45.00;95267.19;5080099;28;20879;-63
2023/10/17 10:02:52;;;;;;;5.43;1.97;;;13.90;61.20;;;14.15;44.82;95265.91;5079907;28;20470;-65
2023/10/17 10:05:21;;;;;;;6.87;2.37;;;14.00;61.20;;;14.18;44.90;95267.44;5078470;28;20980;-64
2023/10/17 10:07:48;;;;;;;2.20;2.00;;;14.00;60.90;;;14.18;44.89;95257.66;5079847;28;20477;-65
2023/10/17 10:10:56;;;;;;;7.03;2.33;;;14.00;60.50;;;14.19;44.69;95258.50;5078042;28;20446;-64
2023/10/17 10:13:24;;;;;;;4.70;3.43;;;14.00;60.50;;;14.21;44.58;95254.72;5075246;28;20899;-65
2023/10/17 10:15:53;;;;;;;4.57;2.33;;;14.00;60.50;;;14.26;44.55;95256.91;5073787;28;20471;-64
2023/10/17 10:18:57;;;;;;;4.33;2.60;;;14.10;60.40;;;14.30;44.53;95253.81;5074319;28;20447;-60
2023/10/17 10:21:55;;;;;;;5.53;1.97;;;14.10;60.40;;;14.34;44.69;95251.66;5074822;28;20512;-63
2023/10/17 10:24:29;;;;;;;5.40;2.37;;;14.10;60.40;;;14.38;44.42;95257.50;5074508;28;20546;-60
2023/10/17 10:27:27;;;;;;;4.20;2.53;;;14.20;60.60;;;14.37;44.07;95255.84;5079134;28;20899;-65
2023/10/17 10:29:56;;;;;;;10.97;2.63;;;14.20;60.20;;;14.35;44.34;95246.22;5043868;28;20457;-65
2023/10/17 10:32:30;;;;;;;6.60;2.43;;;14.20;60.40;;;14.40;44.55;95252.88;5079933;28;20474;-64
2023/10/17 10:34:59;;;;;;;11.80;2.50;;;14.20;60.50;;;14.46;44.63;95244.31;5083186;28;21037;-64
2023/10/17 10:37:26;;;;;;;3.30;1.80;;;14.20;60.50;;;14.52;44.24;95251.66;5082296;28;20477;-64
2023/10/17 10:40:12;;;;;;;2.63;2.03;;;14.30;60.60;;;14.58;44.27;95251.03;5083350;28;20541;-64
2023/10/17 10:42:44;;;;;;;7.53;2.10;;;14.30;60.30;;;14.61;44.07;95245.47;5078546;28;20478;-65
2023/10/17 10:45:38;;;;;;;5.37;2.20;;;14.40;60.20;;;14.64;44.14;95239.84;5083465;28;20501;-65
2023/10/17 10:48:14;;;;;;;13.20;3.47;;;14.40;60.20;;;14.70;44.09;95243.66;5074189;28;20451;-61
2023/10/17 10:50:43;;;;;;;2.13;1.80;;;14.40;60.30;;;14.77;43.88;95244.72;5083375;28;20440;-64
2023/10/17 10:53:21;;;;;;;5.17;2.03;;;14.50;59.90;;;14.78;43.82;95232.31;5082616;28;20486;-64
2023/10/17 10:55:56;;;;;;;3.70;2.07;;;14.60;59.60;;;14.78;43.96;95235.81;5083530;28;20552;-65
2023/10/17 10:58:25;;;;;;;6.73;2.23;;;14.60;59.50;;;14.77;43.63;95234.13;5076892;28;21016;-60
2023/10/17 11:00:54;;;;;;;9.80;2.50;;;14.60;59.50;;;14.78;43.54;95234.94;5083938;28;21087;-64
2023/10/17 11:03:22;;;;;;;4.73;2.03;;;14.60;59.40;;;14.79;43.62;95221.56;5080411;28;20458;-61
2023/10/17 11:05:55;;;;;;;4.00;2.00;;;14.60;59.40;;;14.83;43.16;95224.72;5084116;28;20441;-61
2023/10/17 11:08:23;;;;;;;6.00;1.50;;;14.60;59.10;;;14.85;43.48;95210.34;5081176;28;20454;-64
2023/10/17 11:10:50;;;;;;;14.83;2.00;;;14.60;59.00;;;14.85;43.30;95209.50;5083255;28;20480;-60
2023/10/17 11:13:18;;;;;;;2.73;2.47;;;14.60;59.00;;;14.88;43.45;95206.53;5081122;28;20490;-64
2023/10/17 11:15:45;;;;;;;7.00;2.10;;;14.70;59.10;;;14.94;43.19;95200.63;5083524;28;20482;-61
2023/10/17 11:18:15;;;;;;;5.53;2.00;;;14.70;59.10;;;15.03;43.04;95202.31;5081696;28;20462;-60
2023/10/17 11:20:42;;;;;;;6.13;2.20;;;14.80;59.10;;;15.10;43.07;95199.03;5083618;28;20438;-64
2023/10/17 11:23:13;;;;;;;4.13;1.90;;;14.80;59.10;;;15.15;42.88;95197.56;5080636;28;20542;-63
2023/10/17 11:25:44;;;;;;;12.20;2.00;;;14.90;58.70;;;15.12;42.89;95191.75;5083096;28;20442;-60
2023/10/17 11:28:11;;;;;;;7.27;2.27;;;14.90;58.40;;;15.09;42.74;95179.66;5081308;28;20754;-59
2023/10/17 11:30:41;;;;;;;6.67;1.60;;;14.90;58.40;;;15.07;42.88;95171.03;5086020;28;20477;-64
2023/10/17 11:33:10;;;;;;;1.80;1.60;;;14.90;58.40;;;15.09;42.49;95168.22;5080717;28;20486;-64
2023/10/17 11:35:39;;;;;;;5.47;2.07;;;14.90;58.40;;;15.06;42.50;95166.72;5081998;28;20537;-65
2023/10/17 11:38:07;;;;;;;3.00;2.53;;;14.90;58.40;;;15.02;42.63;95163.56;5081035;28;20457;-65
2023/10/17 11:40:43;;;;;;;3.83;2.00;;;14.80;58.30;;;15.02;42.92;95157.44;5081710;28;20591;-61
2023/10/17 11:43:20;;;;;;;2.80;2.10;;;14.80;58.40;;;15.02;42.92;95157.44;5081977;28;20542;-64
2023/10/17 11:45:48;;;;;;;11.27;2.30;;;14.80;58.40;;;15.00;42.72;95162.06;5083658;28;20476;-65
2023/10/17 11:48:29;;;;;;;21.40;2.60;;;14.80;58.40;;;14.97;42.63;95154.44;5075846;28;20451;-59
2023/10/17 11:51:12;;;;;;;5.00;2.40;;;14.80;58.30;;;14.92;42.75;95144.34;5079205;28;20475;-60
2023/10/17 11:54:05;;;;;;;4.00;2.60;;;14.70;58.30;;;14.86;43.22;95140.50;5080520;28;20558;-65
2023/10/17 11:56:34;;;;;;;9.67;2.10;;;14.70;58.60;;;14.86;42.87;95142.31;5081233;28;20493;-65
2023/10/17 11:59:03;;;;;;;13.60;3.27;;;14.70;58.50;;;14.79;42.94;95138.66;5080579;28;20905;-64
2023/10/17 12:01:32;;;;;;;4.53;1.87;;;14.60;58.30;;;14.72;43.11;95145.56;5083072;28;20547;-60
2023/10/17 12:04:05;;;;;;;13.43;2.43;;;14.60;58.50;;;14.65;43.00;95148.00;5080712;28;20465;-65
2023/10/17 12:06:34;;;;;;;7.60;2.23;;;14.50;58.70;;;14.59;43.32;95145.97;5076082;28;20467;-65
2023/10/17 12:09:17;;;;;;;3.40;2.00;;;14.40;58.80;;;14.52;43.42;95145.78;5075415;28;20910;-64
2023/10/17 12:11:47;;;;;;;4.30;2.37;;;14.40;58.80;;;14.50;43.50;95150.38;5080300;28;21021;-64
2023/10/17 12:14:19;;;;;;;3.13;2.60;;;14.30;59.10;;;14.48;43.71;95142.63;5080906;28;20557;-60
2023/10/17 12:16:49;;;;;;;3.97;2.17;;;14.30;59.20;;;14.47;43.70;95145.44;5082108;28;20893;-66
2023/10/17 12:19:18;;;;;;;5.03;3.13;;;14.30;59.20;;;14.47;43.96;95143.59;5080343;28;20465;-60
2023/10/17 12:21:48;;;;;;;3.53;3.00;;;14.30;59.30;;;14.47;43.95;95137.47;5082607;28;20485;-64
2023/10/17 12:24:19;;;;;;;4.90;2.83;;;14.30;59.40;;;14.46;43.90;95130.53;5078576;28;20434;-65